This is the latest recevied weather packets stored in our database for station/object HS8AFA. If no packets are shown the sender has not sent any weather packets the latest 10 day(s).
| Time | Temp. | Humidity | Pressure | Rain* | Wind** | Luminosity | Snow |
|---|---|---|---|---|---|---|---|
| 1778030418 | 29.44° C | 100% | 1010.2 hPa | 0 mm | - | - | - |
| 1778028621 | 29.44° C | 100% | 1010.2 hPa | 0 mm | - | - | - |
| 1778027418 | 28.89° C | 100% | 1009.9 hPa | 0 mm | - | - | - |
| 1778025015 | 28.89° C | 100% | 1009.7 hPa | 0 mm | - | - | - |
| 1778024416 | 28.33° C | 100% | 1009.6 hPa | 0 mm | - | - | - |
| 1778022020 | 28.89° C | 100% | 1009.5 hPa | 0 mm | - | - | - |
| 1778017820 | 28.89° C | 100% | 1009.2 hPa | 0 mm | - | - | - |
| 1778017217 | 28.89° C | 100% | 1009.4 hPa | 0 mm | - | - | - |
| 1778016617 | 28.89° C | 100% | 1009.3 hPa | 0 mm | - | - | - |
| 1778015419 | 28.89° C | 100% | 1009.1 hPa | 0 mm | - | - | - |
| 1778013017 | 29.44° C | 100% | 1009 hPa | 0 mm | - | - | - |
| 1778010620 | 29.44° C | 100% | 1009.2 hPa | 0 mm | - | - | - |
| 1778006417 | 30° C | 100% | 1009.6 hPa | 0 mm | - | - | - |
| 1777998617 | 30.56° C | 100% | 1010.9 hPa | 0 mm | - | - | - |
| 1777996819 | 31.11° C | 100% | 1010.8 hPa | 0 mm | - | - | - |
| 1777993240 | 31.11° C | 100% | 1010.5 hPa | 0 mm | - | - | - |
| 1777990817 | 31.67° C | 100% | 1010 hPa | 0 mm | - | - | - |
| 1777986039 | 32.22° C | 100% | 1009 hPa | 0 mm | - | - | - |
| 1777984821 | 32.22° C | 100% | 1008.4 hPa | 0 mm | - | - | - |
| 1777984216 | 32.22° C | 100% | 1008.1 hPa | 0 mm | - | - | - |
| 1777978220 | 33.89° C | 100% | 1006.8 hPa | 0 mm | - | - | - |
| 1777977016 | 34.44° C | 100% | 1006.7 hPa | 0 mm | - | - | - |
| 1777967420 | 35° C | 98% | 1008 hPa | 0 mm | - | - | - |
| 1777966215 | 35.56° C | 99% | 1008.4 hPa | 0 mm | - | - | - |
| 1777956619 | 33.89° C | 100% | 1011.3 hPa | 0 mm | - | - | - |
* Rain latest hour (hover to see other rain measurements)
** Current wind speed in m/s (hover to see current wind gust speed)